sensor_id;sensor_type;location;lat;lon;timestamp;P1;durP1;ratioP1;P2;durP2;ratioP2
48859;SDS011;34679;51.436;-2.518;2023-08-07T00:00:21;12.15;;;4.10;;
48859;SDS011;34679;51.436;-2.518;2023-08-07T00:02:47;12.88;;;4.03;;
48859;SDS011;34679;51.436;-2.518;2023-08-07T00:05:13;9.82;;;3.65;;
48859;SDS011;34679;51.436;-2.518;2023-08-07T00:07:39;10.20;;;3.28;;
48859;SDS011;34679;51.436;-2.518;2023-08-07T00:10:06;8.88;;;3.97;;
48859;SDS011;34679;51.436;-2.518;2023-08-07T00:12:32;13.02;;;4.10;;
48859;SDS011;34679;51.436;-2.518;2023-08-07T00:14:57;8.43;;;4.13;;
48859;SDS011;34679;51.436;-2.518;2023-08-07T00:17:23;10.10;;;3.50;;
48859;SDS011;34679;51.436;-2.518;2023-08-07T00:19:49;15.38;;;3.70;;
48859;SDS011;34679;51.436;-2.518;2023-08-07T00:22:14;9.82;;;3.33;;
48859;SDS011;34679;51.436;-2.518;2023-08-07T00:24:40;9.73;;;3.65;;
48859;SDS011;34679;51.436;-2.518;2023-08-07T00:27:06;15.05;;;4.15;;
48859;SDS011;34679;51.436;-2.518;2023-08-07T00:29:34;11.70;;;3.58;;
48859;SDS011;34679;51.436;-2.518;2023-08-07T00:32:01;9.27;;;3.78;;
48859;SDS011;34679;51.436;-2.518;2023-08-07T00:34:27;7.32;;;4.00;;
48859;SDS011;34679;51.436;-2.518;2023-08-07T00:36:53;7.65;;;4.00;;
48859;SDS011;34679;51.436;-2.518;2023-08-07T00:39:19;12.25;;;3.25;;
48859;SDS011;34679;51.436;-2.518;2023-08-07T00:41:44;9.27;;;3.38;;
48859;SDS011;34679;51.436;-2.518;2023-08-07T00:44:10;16.13;;;3.80;;
48859;SDS011;34679;51.436;-2.518;2023-08-07T00:46:36;7.68;;;3.35;;
48859;SDS011;34679;51.436;-2.518;2023-08-07T00:49:04;10.65;;;3.53;;
48859;SDS011;34679;51.436;-2.518;2023-08-07T00:51:30;10.70;;;3.70;;
48859;SDS011;34679;51.436;-2.518;2023-08-07T00:53:56;5.70;;;2.92;;
48859;SDS011;34679;51.436;-2.518;2023-08-07T00:56:23;9.60;;;3.40;;
48859;SDS011;34679;51.436;-2.518;2023-08-07T00:58:49;8.27;;;3.80;;
48859;SDS011;34679;51.436;-2.518;2023-08-07T01:01:15;9.10;;;3.45;;
48859;SDS011;34679;51.436;-2.518;2023-08-07T01:03:41;8.90;;;3.03;;
48859;SDS011;34679;51.436;-2.518;2023-08-07T01:06:07;8.82;;;3.33;;
48859;SDS011;34679;51.436;-2.518;2023-08-07T01:08:33;10.80;;;3.53;;
48859;SDS011;34679;51.436;-2.518;2023-08-07T01:14:00;7.90;;;3.10;;
48859;SDS011;34679;51.436;-2.518;2023-08-07T01:19:29;9.02;;;3.30;;
48859;SDS011;34679;51.436;-2.518;2023-08-07T01:22:14;10.35;;;3.45;;
48859;SDS011;34679;51.436;-2.518;2023-08-07T01:24:45;8.52;;;3.10;;
48859;SDS011;34679;51.436;-2.518;2023-08-07T01:35:24;4.40;;;2.90;;
48859;SDS011;34679;51.436;-2.518;2023-08-07T01:37:55;8.52;;;2.95;;
48859;SDS011;34679;51.436;-2.518;2023-08-07T01:40:22;6.85;;;2.80;;
48859;SDS011;34679;51.436;-2.518;2023-08-07T01:42:48;10.30;;;3.33;;
48859;SDS011;34679;51.436;-2.518;2023-08-07T01:45:21;9.13;;;3.30;;
48859;SDS011;34679;51.436;-2.518;2023-08-07T01:47:51;4.47;;;3.30;;
48859;SDS011;34679;51.436;-2.518;2023-08-07T01:50:18;5.25;;;3.20;;
48859;SDS011;34679;51.436;-2.518;2023-08-07T01:52:45;8.05;;;3.10;;
48859;SDS011;34679;51.436;-2.518;2023-08-07T01:55:12;6.55;;;2.70;;
48859;SDS011;34679;51.436;-2.518;2023-08-07T01:57:41;8.65;;;2.78;;
48859;SDS011;34679;51.436;-2.518;2023-08-07T02:00:07;5.82;;;2.90;;
48859;SDS011;34679;51.436;-2.518;2023-08-07T02:02:33;8.77;;;3.58;;
48859;SDS011;34679;51.436;-2.518;2023-08-07T02:05:00;5.78;;;3.10;;
48859;SDS011;34679;51.436;-2.518;2023-08-07T02:07:25;7.00;;;3.13;;
48859;SDS011;34679;51.436;-2.518;2023-08-07T02:09:51;9.95;;;4.40;;
48859;SDS011;34679;51.436;-2.518;2023-08-07T02:12:17;9.30;;;3.63;;
48859;SDS011;34679;51.436;-2.518;2023-08-07T02:14:42;11.20;;;3.78;;
48859;SDS011;34679;51.436;-2.518;2023-08-07T02:17:08;7.22;;;3.67;;
48859;SDS011;34679;51.436;-2.518;2023-08-07T02:19:34;12.02;;;4.25;;
48859;SDS011;34679;51.436;-2.518;2023-08-07T02:22:00;6.07;;;3.80;;
48859;SDS011;34679;51.436;-2.518;2023-08-07T02:24:26;6.93;;;3.83;;
48859;SDS011;34679;51.436;-2.518;2023-08-07T02:26:52;12.35;;;3.70;;
48859;SDS011;34679;51.436;-2.518;2023-08-07T02:29:17;10.80;;;4.10;;
48859;SDS011;34679;51.436;-2.518;2023-08-07T02:31:43;23.10;;;4.88;;
48859;SDS011;34679;51.436;-2.518;2023-08-07T02:34:09;7.47;;;3.70;;
48859;SDS011;34679;51.436;-2.518;2023-08-07T02:36:34;9.60;;;3.65;;
48859;SDS011;34679;51.436;-2.518;2023-08-07T02:39:00;7.15;;;3.67;;
48859;SDS011;34679;51.436;-2.518;2023-08-07T02:41:26;8.50;;;4.43;;
48859;SDS011;34679;51.436;-2.518;2023-08-07T02:43:51;7.10;;;3.85;;
48859;SDS011;34679;51.436;-2.518;2023-08-07T02:46:17;8.93;;;3.60;;
48859;SDS011;34679;51.436;-2.518;2023-08-07T02:48:43;5.55;;;3.38;;
48859;SDS011;34679;51.436;-2.518;2023-08-07T02:51:09;11.70;;;3.20;;
48859;SDS011;34679;51.436;-2.518;2023-08-07T02:53:35;7.88;;;3.45;;
48859;SDS011;34679;51.436;-2.518;2023-08-07T02:56:00;5.95;;;3.35;;
48859;SDS011;34679;51.436;-2.518;2023-08-07T02:58:26;5.00;;;3.22;;
48859;SDS011;34679;51.436;-2.518;2023-08-07T03:00:52;6.72;;;3.13;;
48859;SDS011;34679;51.436;-2.518;2023-08-07T03:03:17;9.40;;;3.40;;
48859;SDS011;34679;51.436;-2.518;2023-08-07T03:05:50;7.88;;;3.65;;
48859;SDS011;34679;51.436;-2.518;2023-08-07T03:08:16;7.53;;;3.92;;
48859;SDS011;34679;51.436;-2.518;2023-08-07T03:10:42;12.82;;;3.50;;
48859;SDS011;34679;51.436;-2.518;2023-08-07T03:13:18;10.70;;;3.63;;
48859;SDS011;34679;51.436;-2.518;2023-08-07T03:15:44;13.13;;;4.30;;
48859;SDS011;34679;51.436;-2.518;2023-08-07T03:18:09;7.28;;;3.45;;
48859;SDS011;34679;51.436;-2.518;2023-08-07T03:20:38;13.70;;;3.85;;
48859;SDS011;34679;51.436;-2.518;2023-08-07T03:23:03;7.18;;;3.45;;
48859;SDS011;34679;51.436;-2.518;2023-08-07T03:25:29;11.05;;;3.28;;
48859;SDS011;34679;51.436;-2.518;2023-08-07T03:27:55;6.15;;;3.00;;
48859;SDS011;34679;51.436;-2.518;2023-08-07T03:30:20;6.90;;;3.35;;
48859;SDS011;34679;51.436;-2.518;2023-08-07T03:32:46;6.80;;;3.60;;
48859;SDS011;34679;51.436;-2.518;2023-08-07T03:35:12;8.80;;;2.90;;
48859;SDS011;34679;51.436;-2.518;2023-08-07T03:37:38;6.53;;;3.47;;
48859;SDS011;34679;51.436;-2.518;2023-08-07T03:40:03;4.90;;;3.60;;
48859;SDS011;34679;51.436;-2.518;2023-08-07T03:42:30;7.20;;;3.88;;
48859;SDS011;34679;51.436;-2.518;2023-08-07T03:44:55;5.45;;;3.50;;
48859;SDS011;34679;51.436;-2.518;2023-08-07T03:47:21;4.60;;;3.33;;
48859;SDS011;34679;51.436;-2.518;2023-08-07T03:49:47;8.13;;;3.47;;
48859;SDS011;34679;51.436;-2.518;2023-08-07T03:52:12;8.63;;;3.40;;
48859;SDS011;34679;51.436;-2.518;2023-08-07T03:54:38;6.82;;;3.20;;
48859;SDS011;34679;51.436;-2.518;2023-08-07T03:57:04;7.28;;;3.20;;
48859;SDS011;34679;51.436;-2.518;2023-08-07T03:59:30;6.75;;;3.20;;
48859;SDS011;34679;51.436;-2.518;2023-08-07T04:01:55;5.38;;;2.78;;
48859;SDS011;34679;51.436;-2.518;2023-08-07T04:04:21;23.50;;;4.25;;
48859;SDS011;34679;51.436;-2.518;2023-08-07T04:06:47;5.07;;;3.08;;
48859;SDS011;34679;51.436;-2.518;2023-08-07T04:09:12;4.22;;;2.90;;
48859;SDS011;34679;51.436;-2.518;2023-08-07T04:11:38;8.32;;;3.22;;
48859;SDS011;34679;51.436;-2.518;2023-08-07T04:14:05;6.18;;;2.78;;
48859;SDS011;34679;51.436;-2.518;2023-08-07T04:16:31;4.70;;;2.72;;
48859;SDS011;34679;51.436;-2.518;2023-08-07T04:18:56;5.80;;;3.33;;
48859;SDS011;34679;51.436;-2.518;2023-08-07T04:21:22;5.68;;;2.85;;
48859;SDS011;34679;51.436;-2.518;2023-08-07T04:23:48;4.90;;;2.70;;
48859;SDS011;34679;51.436;-2.518;2023-08-07T04:26:14;3.85;;;2.83;;
48859;SDS011;34679;51.436;-2.518;2023-08-07T04:28:39;7.93;;;2.97;;
48859;SDS011;34679;51.436;-2.518;2023-08-07T04:31:05;6.18;;;3.08;;
48859;SDS011;34679;51.436;-2.518;2023-08-07T04:33:31;4.35;;;3.17;;
48859;SDS011;34679;51.436;-2.518;2023-08-07T04:35:57;11.70;;;3.90;;
48859;SDS011;34679;51.436;-2.518;2023-08-07T04:38:22;7.43;;;3.50;;
48859;SDS011;34679;51.436;-2.518;2023-08-07T04:40:48;10.00;;;3.78;;
48859;SDS011;34679;51.436;-2.518;2023-08-07T04:43:15;11.55;;;3.85;;
48859;SDS011;34679;51.436;-2.518;2023-08-07T04:45:41;9.75;;;4.15;;
48859;SDS011;34679;51.436;-2.518;2023-08-07T04:48:10;9.55;;;3.78;;
48859;SDS011;34679;51.436;-2.518;2023-08-07T04:50:39;6.10;;;4.68;;
48859;SDS011;34679;51.436;-2.518;2023-08-07T04:53:05;6.93;;;4.10;;
48859;SDS011;34679;51.436;-2.518;2023-08-07T04:55:33;11.50;;;4.43;;
48859;SDS011;34679;51.436;-2.518;2023-08-07T04:57:59;6.70;;;3.72;;
48859;SDS011;34679;51.436;-2.518;2023-08-07T05:00:25;6.90;;;3.75;;
48859;SDS011;34679;51.436;-2.518;2023-08-07T05:02:52;5.75;;;3.25;;
48859;SDS011;34679;51.436;-2.518;2023-08-07T05:05:18;3.45;;;3.13;;
48859;SDS011;34679;51.436;-2.518;2023-08-07T05:07:47;7.95;;;3.65;;
48859;SDS011;34679;51.436;-2.518;2023-08-07T05:10:13;5.07;;;2.90;;
48859;SDS011;34679;51.436;-2.518;2023-08-07T05:12:39;10.32;;;3.25;;
48859;SDS011;34679;51.436;-2.518;2023-08-07T05:15:05;10.48;;;3.22;;
48859;SDS011;34679;51.436;-2.518;2023-08-07T05:17:31;5.15;;;2.83;;
48859;SDS011;34679;51.436;-2.518;2023-08-07T05:19:57;6.80;;;2.83;;
48859;SDS011;34679;51.436;-2.518;2023-08-07T05:22:23;7.57;;;3.25;;
48859;SDS011;34679;51.436;-2.518;2023-08-07T05:24:48;4.35;;;3.03;;
48859;SDS011;34679;51.436;-2.518;2023-08-07T05:27:15;3.63;;;2.38;;
48859;SDS011;34679;51.436;-2.518;2023-08-07T05:29:40;2.83;;;1.95;;
48859;SDS011;34679;51.436;-2.518;2023-08-07T05:32:13;4.43;;;2.22;;
48859;SDS011;34679;51.436;-2.518;2023-08-07T05:34:39;8.23;;;2.40;;
48859;SDS011;34679;51.436;-2.518;2023-08-07T05:37:05;6.55;;;2.88;;
48859;SDS011;34679;51.436;-2.518;2023-08-07T05:39:32;5.55;;;2.20;;
48859;SDS011;34679;51.436;-2.518;2023-08-07T05:41:58;5.65;;;2.28;;
48859;SDS011;34679;51.436;-2.518;2023-08-07T05:44:24;3.63;;;2.35;;
48859;SDS011;34679;51.436;-2.518;2023-08-07T05:46:50;5.65;;;2.60;;
48859;SDS011;34679;51.436;-2.518;2023-08-07T05:49:15;4.85;;;2.33;;
48859;SDS011;34679;51.436;-2.518;2023-08-07T05:51:41;5.40;;;2.13;;
48859;SDS011;34679;51.436;-2.518;2023-08-07T05:54:07;5.07;;;2.42;;
48859;SDS011;34679;51.436;-2.518;2023-08-07T05:56:33;3.67;;;2.25;;
48859;SDS011;34679;51.436;-2.518;2023-08-07T05:58:59;5.38;;;2.28;;
48859;SDS011;34679;51.436;-2.518;2023-08-07T06:01:25;8.43;;;2.70;;
48859;SDS011;34679;51.436;-2.518;2023-08-07T06:03:59;5.22;;;2.55;;
48859;SDS011;34679;51.436;-2.518;2023-08-07T06:06:25;5.75;;;2.58;;
48859;SDS011;34679;51.436;-2.518;2023-08-07T06:08:53;6.72;;;2.40;;
48859;SDS011;34679;51.436;-2.518;2023-08-07T06:11:21;7.28;;;2.55;;
48859;SDS011;34679;51.436;-2.518;2023-08-07T06:13:48;10.50;;;2.35;;
48859;SDS011;34679;51.436;-2.518;2023-08-07T06:16:14;4.60;;;2.40;;
48859;SDS011;34679;51.436;-2.518;2023-08-07T06:18:40;7.65;;;2.40;;
48859;SDS011;34679;51.436;-2.518;2023-08-07T06:21:05;7.82;;;2.35;;
48859;SDS011;34679;51.436;-2.518;2023-08-07T06:23:34;2.35;;;2.00;;
48859;SDS011;34679;51.436;-2.518;2023-08-07T06:26:00;3.30;;;2.03;;
48859;SDS011;34679;51.436;-2.518;2023-08-07T06:28:29;5.15;;;2.50;;
48859;SDS011;34679;51.436;-2.518;2023-08-07T06:31:08;5.30;;;2.33;;
48859;SDS011;34679;51.436;-2.518;2023-08-07T06:33:35;4.85;;;2.35;;
48859;SDS011;34679;51.436;-2.518;2023-08-07T06:36:02;4.55;;;2.20;;
48859;SDS011;34679;51.436;-2.518;2023-08-07T06:38:29;7.07;;;2.33;;
48859;SDS011;34679;51.436;-2.518;2023-08-07T06:40:55;4.32;;;1.70;;
48859;SDS011;34679;51.436;-2.518;2023-08-07T06:43:21;6.43;;;2.15;;
48859;SDS011;34679;51.436;-2.518;2023-08-07T06:45:49;7.53;;;2.40;;
48859;SDS011;34679;51.436;-2.518;2023-08-07T06:48:15;6.50;;;2.58;;
48859;SDS011;34679;51.436;-2.518;2023-08-07T06:50:41;4.68;;;2.17;;
48859;SDS011;34679;51.436;-2.518;2023-08-07T06:53:06;5.30;;;2.58;;
48859;SDS011;34679;51.436;-2.518;2023-08-07T06:55:32;4.35;;;2.00;;
48859;SDS011;34679;51.436;-2.518;2023-08-07T06:57:58;5.10;;;2.10;;
48859;SDS011;34679;51.436;-2.518;2023-08-07T07:00:24;3.88;;;2.25;;
48859;SDS011;34679;51.436;-2.518;2023-08-07T07:02:50;6.00;;;2.30;;
48859;SDS011;34679;51.436;-2.518;2023-08-07T07:05:16;3.33;;;1.70;;
48859;SDS011;34679;51.436;-2.518;2023-08-07T07:07:41;2.58;;;2.00;;
48859;SDS011;34679;51.436;-2.518;2023-08-07T07:10:07;4.38;;;2.30;;
48859;SDS011;34679;51.436;-2.518;2023-08-07T07:12:33;5.43;;;2.20;;
48859;SDS011;34679;51.436;-2.518;2023-08-07T07:14:59;5.70;;;1.92;;
48859;SDS011;34679;51.436;-2.518;2023-08-07T07:17:24;3.97;;;1.98;;
48859;SDS011;34679;51.436;-2.518;2023-08-07T07:19:50;3.50;;;1.38;;
48859;SDS011;34679;51.436;-2.518;2023-08-07T07:22:16;2.33;;;1.10;;
48859;SDS011;34679;51.436;-2.518;2023-08-07T07:24:41;3.40;;;1.10;;
48859;SDS011;34679;51.436;-2.518;2023-08-07T07:27:07;2.10;;;1.10;;
48859;SDS011;34679;51.436;-2.518;2023-08-07T07:29:33;2.50;;;1.13;;
48859;SDS011;34679;51.436;-2.518;2023-08-07T07:31:58;1.35;;;1.20;;
48859;SDS011;34679;51.436;-2.518;2023-08-07T07:34:24;4.53;;;1.10;;
48859;SDS011;34679;51.436;-2.518;2023-08-07T07:36:50;3.95;;;1.30;;
48859;SDS011;34679;51.436;-2.518;2023-08-07T07:39:16;2.72;;;0.98;;
48859;SDS011;34679;51.436;-2.518;2023-08-07T07:41:42;4.78;;;1.40;;
48859;SDS011;34679;51.436;-2.518;2023-08-07T07:44:08;4.25;;;1.48;;
48859;SDS011;34679;51.436;-2.518;2023-08-07T07:46:33;2.58;;;1.35;;
48859;SDS011;34679;51.436;-2.518;2023-08-07T07:48:59;2.40;;;1.30;;
48859;SDS011;34679;51.436;-2.518;2023-08-07T07:51:26;2.90;;;1.30;;
48859;SDS011;34679;51.436;-2.518;2023-08-07T07:53:51;8.13;;;1.42;;
48859;SDS011;34679;51.436;-2.518;2023-08-07T07:56:17;2.58;;;1.33;;
48859;SDS011;34679;51.436;-2.518;2023-08-07T07:58:43;2.00;;;1.02;;
48859;SDS011;34679;51.436;-2.518;2023-08-07T08:01:09;2.72;;;1.35;;
48859;SDS011;34679;51.436;-2.518;2023-08-07T08:03:35;3.47;;;1.17;;
48859;SDS011;34679;51.436;-2.518;2023-08-07T08:06:00;2.20;;;0.85;;
48859;SDS011;34679;51.436;-2.518;2023-08-07T08:08:26;2.13;;;0.55;;
48859;SDS011;34679;51.436;-2.518;2023-08-07T08:10:52;1.63;;;0.68;;
48859;SDS011;34679;51.436;-2.518;2023-08-07T08:13:18;1.42;;;0.50;;
48859;SDS011;34679;51.436;-2.518;2023-08-07T08:15:44;2.50;;;0.80;;
48859;SDS011;34679;51.436;-2.518;2023-08-07T08:18:10;2.72;;;0.82;;
48859;SDS011;34679;51.436;-2.518;2023-08-07T08:20:37;4.20;;;0.80;;
48859;SDS011;34679;51.436;-2.518;2023-08-07T08:23:03;1.80;;;0.80;;
48859;SDS011;34679;51.436;-2.518;2023-08-07T08:25:30;2.15;;;0.77;;
48859;SDS011;34679;51.436;-2.518;2023-08-07T08:27:57;1.95;;;0.63;;
48859;SDS011;34679;51.436;-2.518;2023-08-07T08:30:24;3.00;;;0.70;;
48859;SDS011;34679;51.436;-2.518;2023-08-07T08:32:50;2.42;;;1.15;;
48859;SDS011;34679;51.436;-2.518;2023-08-07T08:35:16;2.45;;;0.90;;
48859;SDS011;34679;51.436;-2.518;2023-08-07T08:37:41;1.70;;;0.80;;
48859;SDS011;34679;51.436;-2.518;2023-08-07T08:40:10;3.08;;;0.88;;
48859;SDS011;34679;51.436;-2.518;2023-08-07T08:42:44;1.13;;;0.68;;
48859;SDS011;34679;51.436;-2.518;2023-08-07T08:45:11;2.42;;;0.88;;
48859;SDS011;34679;51.436;-2.518;2023-08-07T08:47:38;1.27;;;0.60;;
48859;SDS011;34679;51.436;-2.518;2023-08-07T08:50:10;1.92;;;0.70;;
48859;SDS011;34679;51.436;-2.518;2023-08-07T08:52:41;2.00;;;0.80;;
48859;SDS011;34679;51.436;-2.518;2023-08-07T08:55:09;1.23;;;0.65;;
48859;SDS011;34679;51.436;-2.518;2023-08-07T08:57:36;1.00;;;0.70;;
48859;SDS011;34679;51.436;-2.518;2023-08-07T09:00:03;3.40;;;0.80;;
48859;SDS011;34679;51.436;-2.518;2023-08-07T09:02:41;2.78;;;0.82;;
48859;SDS011;34679;51.436;-2.518;2023-08-07T09:05:08;3.45;;;0.77;;
48859;SDS011;34679;51.436;-2.518;2023-08-07T09:07:34;3.60;;;0.90;;
48859;SDS011;34679;51.436;-2.518;2023-08-07T09:10:01;1.23;;;0.68;;
48859;SDS011;34679;51.436;-2.518;2023-08-07T09:12:29;1.38;;;0.80;;
48859;SDS011;34679;51.436;-2.518;2023-08-07T09:14:57;2.67;;;0.98;;
48859;SDS011;34679;51.436;-2.518;2023-08-07T09:17:24;4.45;;;1.00;;
48859;SDS011;34679;51.436;-2.518;2023-08-07T09:19:54;6.75;;;1.30;;
48859;SDS011;34679;51.436;-2.518;2023-08-07T09:22:21;6.57;;;1.55;;
48859;SDS011;34679;51.436;-2.518;2023-08-07T09:24:46;3.55;;;1.27;;
48859;SDS011;34679;51.436;-2.518;2023-08-07T09:27:12;4.03;;;1.80;;
48859;SDS011;34679;51.436;-2.518;2023-08-07T09:29:43;3.40;;;1.45;;
48859;SDS011;34679;51.436;-2.518;2023-08-07T09:32:11;5.18;;;1.52;;
48859;SDS011;34679;51.436;-2.518;2023-08-07T09:34:41;2.65;;;1.27;;
48859;SDS011;34679;51.436;-2.518;2023-08-07T09:37:10;3.35;;;1.20;;
48859;SDS011;34679;51.436;-2.518;2023-08-07T09:39:36;2.63;;;1.20;;
48859;SDS011;34679;51.436;-2.518;2023-08-07T09:42:08;2.38;;;1.25;;
48859;SDS011;34679;51.436;-2.518;2023-08-07T09:44:39;3.45;;;1.08;;
48859;SDS011;34679;51.436;-2.518;2023-08-07T09:47:13;2.55;;;1.00;;
48859;SDS011;34679;51.436;-2.518;2023-08-07T09:49:43;2.45;;;1.40;;
48859;SDS011;34679;51.436;-2.518;2023-08-07T09:52:10;3.00;;;1.02;;
48859;SDS011;34679;51.436;-2.518;2023-08-07T09:54:39;3.72;;;1.05;;
48859;SDS011;34679;51.436;-2.518;2023-08-07T09:57:05;5.10;;;1.02;;
48859;SDS011;34679;51.436;-2.518;2023-08-07T09:59:35;3.58;;;0.95;;
48859;SDS011;34679;51.436;-2.518;2023-08-07T10:02:01;3.40;;;1.50;;
48859;SDS011;34679;51.436;-2.518;2023-08-07T10:04:28;4.00;;;0.85;;
48859;SDS011;34679;51.436;-2.518;2023-08-07T10:06:54;1.73;;;0.90;;
48859;SDS011;34679;51.436;-2.518;2023-08-07T10:09:21;2.92;;;0.82;;
48859;SDS011;34679;51.436;-2.518;2023-08-07T10:11:47;2.25;;;1.23;;
48859;SDS011;34679;51.436;-2.518;2023-08-07T10:14:14;4.72;;;1.23;;
48859;SDS011;34679;51.436;-2.518;2023-08-07T10:16:42;6.30;;;1.20;;
48859;SDS011;34679;51.436;-2.518;2023-08-07T10:19:08;2.85;;;0.90;;
48859;SDS011;34679;51.436;-2.518;2023-08-07T10:21:38;3.83;;;1.00;;
48859;SDS011;34679;51.436;-2.518;2023-08-07T10:24:08;3.38;;;1.20;;
48859;SDS011;34679;51.436;-2.518;2023-08-07T10:26:37;4.05;;;1.40;;
48859;SDS011;34679;51.436;-2.518;2023-08-07T10:31:35;3.17;;;0.98;;
48859;SDS011;34679;51.436;-2.518;2023-08-07T10:34:03;3.13;;;0.77;;
48859;SDS011;34679;51.436;-2.518;2023-08-07T10:36:32;1.30;;;0.80;;
48859;SDS011;34679;51.436;-2.518;2023-08-07T10:39:06;2.35;;;1.25;;
48859;SDS011;34679;51.436;-2.518;2023-08-07T10:41:39;1.80;;;0.88;;
48859;SDS011;34679;51.436;-2.518;2023-08-07T10:44:10;3.80;;;1.00;;
48859;SDS011;34679;51.436;-2.518;2023-08-07T10:49:38;3.00;;;1.02;;
48859;SDS011;34679;51.436;-2.518;2023-08-07T10:52:12;2.13;;;0.90;;
48859;SDS011;34679;51.436;-2.518;2023-08-07T10:54:46;2.95;;;1.20;;
48859;SDS011;34679;51.436;-2.518;2023-08-07T10:57:15;3.50;;;0.93;;
48859;SDS011;34679;51.436;-2.518;2023-08-07T10:59:55;2.25;;;0.85;;
48859;SDS011;34679;51.436;-2.518;2023-08-07T11:02:30;3.58;;;1.25;;
48859;SDS011;34679;51.436;-2.518;2023-08-07T11:04:58;4.32;;;1.08;;
48859;SDS011;34679;51.436;-2.518;2023-08-07T11:07:24;3.17;;;1.52;;
48859;SDS011;34679;51.436;-2.518;2023-08-07T11:09:51;4.43;;;1.00;;
48859;SDS011;34679;51.436;-2.518;2023-08-07T11:12:17;5.18;;;1.13;;
48859;SDS011;34679;51.436;-2.518;2023-08-07T11:14:43;4.30;;;0.90;;
48859;SDS011;34679;51.436;-2.518;2023-08-07T11:17:09;6.65;;;1.40;;
48859;SDS011;34679;51.436;-2.518;2023-08-07T11:19:36;4.53;;;1.27;;
48859;SDS011;34679;51.436;-2.518;2023-08-07T11:22:02;4.07;;;1.40;;
48859;SDS011;34679;51.436;-2.518;2023-08-07T11:24:28;8.70;;;1.30;;
48859;SDS011;34679;51.436;-2.518;2023-08-07T11:26:53;3.90;;;1.33;;
48859;SDS011;34679;51.436;-2.518;2023-08-07T11:29:22;3.47;;;1.10;;
48859;SDS011;34679;51.436;-2.518;2023-08-07T11:31:50;3.45;;;1.20;;
48859;SDS011;34679;51.436;-2.518;2023-08-07T11:34:19;4.15;;;1.05;;
48859;SDS011;34679;51.436;-2.518;2023-08-07T11:36:45;3.10;;;1.10;;
48859;SDS011;34679;51.436;-2.518;2023-08-07T11:39:12;4.32;;;1.48;;
48859;SDS011;34679;51.436;-2.518;2023-08-07T11:41:38;1.98;;;0.85;;
48859;SDS011;34679;51.436;-2.518;2023-08-07T11:44:04;3.60;;;1.10;;
48859;SDS011;34679;51.436;-2.518;2023-08-07T11:46:32;3.13;;;1.10;;
48859;SDS011;34679;51.436;-2.518;2023-08-07T11:48:58;3.70;;;1.40;;
48859;SDS011;34679;51.436;-2.518;2023-08-07T11:51:24;4.95;;;1.02;;
48859;SDS011;34679;51.436;-2.518;2023-08-07T11:53:49;7.90;;;1.35;;
48859;SDS011;34679;51.436;-2.518;2023-08-07T11:56:21;4.40;;;1.00;;
48859;SDS011;34679;51.436;-2.518;2023-08-07T11:58:48;3.88;;;1.05;;
48859;SDS011;34679;51.436;-2.518;2023-08-07T12:01:17;7.35;;;1.67;;
48859;SDS011;34679;51.436;-2.518;2023-08-07T12:06:33;6.05;;;1.02;;
48859;SDS011;34679;51.436;-2.518;2023-08-07T12:09:00;3.22;;;0.93;;
48859;SDS011;34679;51.436;-2.518;2023-08-07T12:11:28;4.57;;;1.25;;
48859;SDS011;34679;51.436;-2.518;2023-08-07T12:13:54;5.32;;;1.23;;
48859;SDS011;34679;51.436;-2.518;2023-08-07T12:16:20;4.22;;;1.30;;
48859;SDS011;34679;51.436;-2.518;2023-08-07T12:18:50;4.55;;;1.30;;
48859;SDS011;34679;51.436;-2.518;2023-08-07T12:21:18;3.03;;;1.20;;
48859;SDS011;34679;51.436;-2.518;2023-08-07T12:23:50;2.38;;;1.10;;
48859;SDS011;34679;51.436;-2.518;2023-08-07T12:26:20;1.05;;;0.80;;
48859;SDS011;34679;51.436;-2.518;2023-08-07T12:28:45;2.40;;;1.00;;
48859;SDS011;34679;51.436;-2.518;2023-08-07T12:31:11;2.58;;;0.95;;
48859;SDS011;34679;51.436;-2.518;2023-08-07T12:33:37;4.72;;;0.93;;
48859;SDS011;34679;51.436;-2.518;2023-08-07T12:36:02;4.15;;;1.00;;
48859;SDS011;34679;51.436;-2.518;2023-08-07T12:38:28;5.70;;;1.10;;
48859;SDS011;34679;51.436;-2.518;2023-08-07T12:40:54;4.03;;;1.30;;
48859;SDS011;34679;51.436;-2.518;2023-08-07T12:43:20;4.10;;;0.98;;
48859;SDS011;34679;51.436;-2.518;2023-08-07T12:45:46;3.33;;;1.00;;
48859;SDS011;34679;51.436;-2.518;2023-08-07T12:48:12;3.10;;;0.85;;
48859;SDS011;34679;51.436;-2.518;2023-08-07T12:50:39;4.68;;;1.05;;
48859;SDS011;34679;51.436;-2.518;2023-08-07T12:53:05;2.13;;;0.95;;
48859;SDS011;34679;51.436;-2.518;2023-08-07T12:55:31;6.60;;;1.10;;
48859;SDS011;34679;51.436;-2.518;2023-08-07T12:57:57;2.42;;;0.90;;
48859;SDS011;34679;51.436;-2.518;2023-08-07T13:00:23;1.90;;;0.88;;
48859;SDS011;34679;51.436;-2.518;2023-08-07T13:02:50;4.82;;;0.70;;
48859;SDS011;34679;51.436;-2.518;2023-08-07T13:05:17;4.45;;;0.90;;
48859;SDS011;34679;51.436;-2.518;2023-08-07T13:07:43;4.03;;;1.25;;
48859;SDS011;34679;51.436;-2.518;2023-08-07T13:10:11;2.97;;;1.02;;
48859;SDS011;34679;51.436;-2.518;2023-08-07T13:12:40;4.13;;;0.90;;
48859;SDS011;34679;51.436;-2.518;2023-08-07T13:15:07;4.32;;;1.10;;
48859;SDS011;34679;51.436;-2.518;2023-08-07T13:17:37;6.53;;;1.67;;
48859;SDS011;34679;51.436;-2.518;2023-08-07T13:20:03;3.60;;;0.95;;
48859;SDS011;34679;51.436;-2.518;2023-08-07T13:22:37;6.60;;;1.00;;
48859;SDS011;34679;51.436;-2.518;2023-08-07T13:25:05;4.68;;;1.17;;
48859;SDS011;34679;51.436;-2.518;2023-08-07T13:27:32;3.38;;;0.77;;
48859;SDS011;34679;51.436;-2.518;2023-08-07T13:29:58;3.28;;;1.08;;
48859;SDS011;34679;51.436;-2.518;2023-08-07T13:32:28;3.45;;;0.93;;
48859;SDS011;34679;51.436;-2.518;2023-08-07T13:34:53;3.15;;;0.82;;
48859;SDS011;34679;51.436;-2.518;2023-08-07T13:37:19;2.25;;;1.00;;
48859;SDS011;34679;51.436;-2.518;2023-08-07T13:39:45;3.85;;;1.27;;
48859;SDS011;34679;51.436;-2.518;2023-08-07T13:42:13;4.72;;;1.10;;
48859;SDS011;34679;51.436;-2.518;2023-08-07T13:44:39;2.55;;;0.90;;
48859;SDS011;34679;51.436;-2.518;2023-08-07T13:47:05;3.88;;;1.05;;
48859;SDS011;34679;51.436;-2.518;2023-08-07T13:49:31;5.70;;;0.93;;
48859;SDS011;34679;51.436;-2.518;2023-08-07T13:51:57;3.90;;;1.00;;
48859;SDS011;34679;51.436;-2.518;2023-08-07T13:54:23;3.10;;;0.80;;
48859;SDS011;34679;51.436;-2.518;2023-08-07T13:56:49;4.85;;;1.00;;
48859;SDS011;34679;51.436;-2.518;2023-08-07T13:59:15;2.92;;;1.05;;
48859;SDS011;34679;51.436;-2.518;2023-08-07T14:01:41;5.80;;;1.25;;
48859;SDS011;34679;51.436;-2.518;2023-08-07T14:04:07;3.80;;;0.93;;
48859;SDS011;34679;51.436;-2.518;2023-08-07T14:06:32;9.23;;;1.02;;
48859;SDS011;34679;51.436;-2.518;2023-08-07T14:08:58;5.53;;;0.73;;
48859;SDS011;34679;51.436;-2.518;2023-08-07T14:11:24;5.20;;;1.15;;
48859;SDS011;34679;51.436;-2.518;2023-08-07T14:13:55;3.72;;;0.60;;
48859;SDS011;34679;51.436;-2.518;2023-08-07T14:16:21;9.02;;;1.33;;
48859;SDS011;34679;51.436;-2.518;2023-08-07T14:18:47;3.13;;;0.82;;
48859;SDS011;34679;51.436;-2.518;2023-08-07T14:21:13;3.95;;;1.00;;
48859;SDS011;34679;51.436;-2.518;2023-08-07T14:23:38;7.28;;;1.20;;
48859;SDS011;34679;51.436;-2.518;2023-08-07T14:26:04;7.50;;;0.95;;
48859;SDS011;34679;51.436;-2.518;2023-08-07T14:28:30;2.20;;;1.00;;
48859;SDS011;34679;51.436;-2.518;2023-08-07T14:30:57;3.03;;;0.90;;
48859;SDS011;34679;51.436;-2.518;2023-08-07T14:33:23;3.15;;;0.75;;
48859;SDS011;34679;51.436;-2.518;2023-08-07T14:35:49;5.32;;;1.20;;
48859;SDS011;34679;51.436;-2.518;2023-08-07T14:38:15;3.67;;;1.00;;
48859;SDS011;34679;51.436;-2.518;2023-08-07T14:40:40;4.25;;;1.30;;
48859;SDS011;34679;51.436;-2.518;2023-08-07T14:43:06;5.97;;;1.10;;
48859;SDS011;34679;51.436;-2.518;2023-08-07T14:45:32;5.13;;;1.40;;
48859;SDS011;34679;51.436;-2.518;2023-08-07T14:47:58;4.82;;;0.90;;
48859;SDS011;34679;51.436;-2.518;2023-08-07T14:50:24;1.83;;;1.20;;
48859;SDS011;34679;51.436;-2.518;2023-08-07T14:52:49;3.90;;;0.88;;